Asbury, Iowa
Current Conditions -  °F | °C
As of 5:53 PM on Sunday 23 Nov 2014 (Local Time) from KDBQ Reporting Station
Light Rain Light Rain  
Wind Chill: 44°   Ceiling: 400
Heat Index: 48°   Visibility: 2.5mi
Dew Point: 48°   Wind: 8mph
Humidity: 100%   Direction: 150°SSE
Pressure: 29.31"   Gusts: NA
Location:  42.522°N, 90.7782°W
Report Text: KDBQ 232353Z 15007KT 2 1/2SM -RA BR BKN004 OVC008 09/09 A2931 RMK AO2 SLP926 P0002 60043 T00890089 10089 20083 58024 $
Loading
Personal Weather Stations






























Interactive Weather Map New forecast layout! Learn more

10-Day Weather Forecast

Advertisements
Track Severe Weather on mobile